createdAt,value
2018-10-11T07:45:26.209Z,1013.83
2018-10-11T07:46:27.602Z,1013.79
2018-10-11T07:47:39.550Z,1013.87
2018-10-11T07:48:48.790Z,1013.89
2018-10-11T07:49:49.391Z,1013.94
2018-10-11T07:50:48.888Z,1013.94
2018-10-11T07:51:49.279Z,1013.98
2018-10-11T07:52:49.155Z,1013.98
2018-10-11T07:53:48.959Z,1013.98
2018-10-11T07:55:10.857Z,1014.02
2018-10-11T07:56:11.580Z,1013.74
2018-10-11T07:57:11.178Z,1013.98
2018-10-11T07:58:55.193Z,1013.96
2018-10-11T07:59:56.268Z,1013.95
2018-10-11T08:00:56.147Z,1013.94
2018-10-11T08:01:55.779Z,1013.95
2018-10-11T08:02:55.646Z,1013.95
2018-10-11T08:03:55.665Z,1013.95
2018-10-11T08:05:16.712Z,1013.94
2018-10-11T08:06:17.459Z,1013.97
2018-10-11T08:07:16.919Z,1013.96
2018-10-11T08:08:17.862Z,1014.00
2018-10-11T08:09:17.495Z,1014.03
2018-10-11T08:10:17.276Z,1014.00
2018-10-11T08:11:16.910Z,1014.05
2018-10-11T08:12:17.556Z,1014.07
2018-10-11T08:13:16.794Z,1014.09
2018-10-11T08:14:17.415Z,1014.08
2018-10-11T08:15:16.875Z,1014.10
2018-10-11T08:16:17.363Z,1014.09
2018-10-11T08:17:17.497Z,1014.06
2018-10-11T08:18:17.419Z,1014.05
2018-10-11T08:20:21.160Z,1014.06
2018-10-11T08:21:21.695Z,1014.05
2018-10-11T08:22:21.114Z,1014.07
2018-10-11T08:23:32.796Z,1014.08
2018-10-11T08:24:21.557Z,1014.10
2018-10-11T08:25:22.076Z,1014.12
2018-10-11T08:26:22.289Z,1014.08
2018-10-11T08:27:21.336Z,1014.08
2018-10-11T08:29:04.752Z,1014.10
2018-10-11T08:30:05.348Z,1014.09
2018-10-11T08:31:04.641Z,1014.10
2018-10-11T08:32:27.031Z,1014.12
2018-10-11T08:33:26.605Z,1014.10
2018-10-11T08:34:27.123Z,1014.15
2018-10-11T08:35:26.736Z,1014.14
2018-10-11T08:36:27.300Z,1014.14
2018-10-11T08:37:26.979Z,1014.14
2018-10-11T08:38:27.750Z,1014.14
2018-10-11T08:39:27.411Z,1014.16
2018-10-11T08:40:26.738Z,1014.20
2018-10-11T08:41:27.783Z,1014.14
2018-10-11T08:42:27.526Z,1014.12
2018-10-11T08:43:27.154Z,1014.13
2018-10-11T08:44:26.889Z,1014.10
2018-10-11T08:45:27.417Z,1014.14
2018-10-11T08:46:48.339Z,1014.07
2018-10-11T08:47:49.058Z,1014.08
2018-10-11T08:48:48.888Z,1014.01
2018-10-11T08:49:48.594Z,1013.98
2018-10-11T08:50:49.397Z,1013.92
2018-10-11T08:51:49.172Z,1013.94
2018-10-11T08:53:32.028Z,1013.95
2018-10-11T08:54:55.021Z,1013.95
2018-10-11T08:55:54.558Z,1013.94
2018-10-11T08:56:55.171Z,1013.92
2018-10-11T08:57:54.974Z,1013.87
2018-10-11T08:58:54.662Z,1013.86
2018-10-11T08:59:54.395Z,1013.83
2018-10-11T09:00:55.104Z,1013.78
2018-10-11T09:01:54.824Z,1013.82
2018-10-11T09:02:54.613Z,1013.86
2018-10-11T09:03:55.461Z,1013.86
2018-10-11T09:04:54.595Z,1013.89
2018-10-11T09:05:55.348Z,1013.87
2018-10-11T09:07:16.834Z,1013.92
2018-10-11T09:08:17.581Z,1013.95
2018-10-11T09:09:17.115Z,1013.91
2018-10-11T09:10:17.600Z,1013.97
2018-10-11T09:11:17.185Z,1013.95
2018-10-11T09:12:16.868Z,1013.98
2018-10-11T09:13:17.708Z,1013.96
2018-10-11T09:14:17.624Z,1013.99
2018-10-11T09:15:17.479Z,1014.00
2018-10-11T09:16:39.408Z,1014.01
2018-10-11T09:17:39.281Z,1014.03
2018-10-11T09:18:40.030Z,1014.02
2018-10-11T09:20:01.391Z,1014.04
2018-10-11T09:21:02.113Z,1013.92
2018-10-11T09:22:01.780Z,1013.98
2018-10-11T09:23:03.473Z,1014.02
2018-10-11T09:24:02.119Z,1013.99
2018-10-11T09:25:01.898Z,1013.98
2018-10-11T09:26:23.208Z,1013.96
2018-10-11T09:27:45.345Z,1013.98
2018-10-11T09:28:46.067Z,1013.93
2018-10-11T09:29:45.758Z,1013.92
2018-10-11T09:31:07.928Z,1013.91
2018-10-11T09:32:08.750Z,1013.94
2018-10-11T09:33:08.495Z,1013.95
2018-10-11T09:34:08.427Z,1013.97
2018-10-11T09:35:31.260Z,1013.98
2018-10-11T09:36:31.932Z,1013.96
2018-10-11T09:37:31.822Z,1013.95
2018-10-11T09:38:31.360Z,1013.98
2018-10-11T09:39:32.075Z,1013.96
2018-10-11T09:40:31.990Z,1013.99
2018-10-11T09:41:31.838Z,1013.98
2018-10-11T09:42:31.614Z,1014.00
2018-10-11T09:43:53.289Z,1013.95
2018-10-11T09:44:54.114Z,1013.97
2018-10-11T09:45:53.773Z,1013.98
2018-10-11T09:46:53.854Z,1013.92
2018-10-11T09:47:53.456Z,1013.93
2018-10-11T09:49:15.328Z,1013.92
2018-10-11T09:50:15.192Z,1013.93
2018-10-11T09:51:15.723Z,1013.91
2018-10-11T09:52:15.525Z,1013.94
2018-10-11T09:53:15.103Z,1013.91
2018-10-11T09:54:16.498Z,1013.93
2018-10-11T09:55:15.734Z,1013.93
2018-10-11T09:56:15.494Z,1013.93
2018-10-11T09:57:15.085Z,1013.93
2018-10-11T09:58:15.638Z,1013.96
2018-10-11T09:59:37.724Z,1013.95
2018-10-11T10:00:37.362Z,1013.91
2018-10-11T10:01:37.271Z,1013.90
2018-10-11T10:02:59.871Z,1013.90
2018-10-11T10:04:22.027Z,1013.89
2018-10-11T10:05:22.603Z,1013.96
2018-10-11T10:06:22.159Z,1013.89
2018-10-11T10:07:22.805Z,1013.90
2018-10-11T10:08:22.320Z,1013.91
2018-10-11T10:09:44.562Z,1013.93
2018-10-11T10:10:45.287Z,1013.95
2018-10-11T10:11:44.962Z,1013.96
2018-10-11T10:12:44.757Z,1014.00
2018-10-11T10:13:44.495Z,1014.01
2018-10-11T10:14:45.179Z,1014.02
2018-10-11T10:15:44.901Z,1014.04
2018-10-11T10:17:27.903Z,1014.05
2018-10-11T10:18:28.492Z,1013.99
2018-10-11T10:19:50.607Z,1014.02
2018-10-11T10:20:51.292Z,1013.95
2018-10-11T10:21:50.991Z,1013.97
2018-10-11T10:23:12.296Z,1013.99
2018-10-11T10:24:13.154Z,1013.99
2018-10-11T10:25:13.009Z,1013.98
2018-10-11T10:26:12.894Z,1013.98
2018-10-11T10:27:13.006Z,1013.97
2018-10-11T10:28:13.220Z,1013.98
2018-10-11T10:29:12.754Z,1014.04
2018-10-11T10:30:56.248Z,1014.09
2018-10-11T10:31:56.657Z,1014.07
2018-10-11T10:32:56.543Z,1014.10
2018-10-11T10:33:57.072Z,1014.07
2018-10-11T10:34:56.764Z,1014.13
2018-10-11T10:35:56.531Z,1014.10
2018-10-11T10:36:57.171Z,1014.07
2018-10-11T10:38:39.983Z,1014.02
2018-10-11T10:39:40.735Z,1014.00
2018-10-11T10:40:40.354Z,1013.98
2018-10-11T10:41:40.907Z,1013.98
2018-10-11T10:42:40.257Z,1013.97
2018-10-11T10:43:40.858Z,1013.97
2018-10-11T10:44:40.432Z,1013.99
2018-10-11T10:46:01.743Z,1013.96
2018-10-11T10:47:02.409Z,1013.96
2018-10-11T10:48:01.918Z,1013.95
2018-10-11T10:49:02.637Z,1013.98
2018-10-11T10:50:02.465Z,1013.95
2018-10-11T10:51:23.672Z,1013.93
2018-10-11T10:52:24.396Z,1013.91
2018-10-11T10:53:24.170Z,1013.89
2018-10-11T10:54:24.154Z,1013.86
2018-10-11T10:55:24.321Z,1013.84
2018-10-11T10:56:45.174Z,1013.78
2018-10-11T10:57:45.690Z,1013.80
2018-10-11T10:59:07.628Z,1013.80
2018-10-11T11:00:08.285Z,1013.78
2018-10-11T11:01:29.157Z,1013.80
2018-10-11T11:02:29.955Z,1013.82
2018-10-11T11:03:29.714Z,1013.82
2018-10-11T11:04:29.372Z,1013.76
2018-10-11T11:05:28.945Z,1013.80
2018-10-11T11:06:29.223Z,1013.79
2018-10-11T11:07:29.902Z,1013.87
2018-10-11T11:08:29.430Z,1013.82
2018-10-11T11:09:30.014Z,1013.83
2018-10-11T11:10:29.459Z,1013.82
2018-10-11T11:11:29.878Z,1013.82
2018-10-11T11:13:12.616Z,1013.81
2018-10-11T11:14:56.229Z,1013.79
2018-10-11T11:15:57.021Z,1013.84
2018-10-11T11:16:56.530Z,1013.84
2018-10-11T11:17:57.262Z,1013.81
2018-10-11T11:18:56.790Z,1013.83
2018-10-11T11:19:56.599Z,1013.84
2018-10-11T11:20:56.288Z,1013.80
2018-10-11T11:22:18.976Z,1013.81
2018-10-11T11:23:19.748Z,1013.77
2018-10-11T11:24:19.546Z,1013.80
2018-10-11T11:25:19.185Z,1013.80
2018-10-11T11:26:19.664Z,1013.79
2018-10-11T11:27:19.211Z,1013.82
2018-10-11T11:28:20.031Z,1013.83
2018-10-11T11:29:19.583Z,1013.83
2018-10-11T11:30:19.144Z,1013.84
2018-10-11T11:31:19.645Z,1013.80
2018-10-11T11:32:40.822Z,1013.79
2018-10-11T11:33:41.610Z,1013.76
2018-10-11T11:35:02.845Z,1013.81
2018-10-11T11:36:03.398Z,1013.80
2018-10-11T11:37:03.243Z,1013.80
2018-10-11T11:38:02.903Z,1013.79
2018-10-11T11:39:24.952Z,1013.79
2018-10-11T11:40:25.452Z,1013.80
2018-10-11T11:41:47.180Z,1013.75
2018-10-11T11:42:47.894Z,1013.75
2018-10-11T11:43:47.678Z,1013.73
2018-10-11T11:44:47.318Z,1013.75
2018-10-11T11:45:47.920Z,1013.74
2018-10-11T11:46:47.431Z,1013.72
2018-10-11T11:47:47.003Z,1013.73
2018-10-11T11:48:47.587Z,1013.70
2018-10-11T11:50:08.590Z,1013.73
2018-10-11T11:51:09.426Z,1013.73
2018-10-11T11:52:09.416Z,1013.69
2018-10-11T11:53:09.254Z,1013.69
2018-10-11T11:54:09.047Z,1013.71
2018-10-11T11:55:31.059Z,1013.70
2018-10-11T11:56:31.729Z,1013.65
2018-10-11T11:57:31.592Z,1013.61
2018-10-11T11:58:31.394Z,1013.64
2018-10-11T11:59:31.964Z,1013.59
2018-10-11T12:00:31.585Z,1013.63
2018-10-11T12:01:31.254Z,1013.63
2018-10-11T12:02:32.140Z,1013.64
2018-10-11T12:03:53.447Z,1013.68
2018-10-11T12:04:54.910Z,1013.66
2018-10-11T12:05:53.381Z,1013.63
2018-10-11T12:06:54.083Z,1013.66
2018-10-11T12:07:53.854Z,1013.67
2018-10-11T12:08:54.561Z,1013.67
2018-10-11T12:09:54.239Z,1013.65
2018-10-11T12:10:54.095Z,1013.66
2018-10-11T12:11:53.889Z,1013.64
2018-10-11T12:12:53.663Z,1013.61
2018-10-11T12:13:53.615Z,1013.58
2018-10-11T12:14:54.457Z,1013.61
2018-10-11T12:15:54.000Z,1013.61
2018-10-11T12:16:53.698Z,1013.60
2018-10-11T12:17:53.375Z,1013.59
2018-10-11T12:18:54.224Z,1013.58
2018-10-11T12:19:53.680Z,1013.59
2018-10-11T12:20:53.390Z,1013.58
2018-10-11T12:21:54.135Z,1013.58
2018-10-11T12:22:53.958Z,1013.54
2018-10-11T12:23:53.540Z,1013.56
2018-10-11T12:24:54.512Z,1013.59
2018-10-11T12:25:54.244Z,1013.61
2018-10-11T12:26:53.839Z,1013.59
2018-10-11T12:27:53.447Z,1013.58
2018-10-11T12:28:54.209Z,1013.60
2018-10-11T12:29:53.669Z,1013.58
2018-10-11T12:30:54.377Z,1013.60
2018-10-11T12:31:54.102Z,1013.59
2018-10-11T12:32:53.520Z,1013.58
2018-10-11T12:33:54.150Z,1013.61
2018-10-11T12:35:15.094Z,1013.61
2018-10-11T12:36:15.692Z,1013.61
2018-10-11T12:37:15.368Z,1013.60
2018-10-11T12:38:36.381Z,1013.60
2018-10-11T12:39:36.924Z,1013.60
2018-10-11T12:40:36.627Z,1013.59
2018-10-11T12:41:37.332Z,1013.61
2018-10-11T12:42:58.674Z,1013.64
2018-10-11T12:43:59.081Z,1013.65
2018-10-11T12:44:58.915Z,1013.62
2018-10-11T12:45:59.038Z,1013.66
2018-10-11T12:46:59.391Z,1013.66
2018-10-11T12:47:58.988Z,1013.65
2018-10-11T12:48:58.633Z,1013.68
2018-10-11T12:49:59.353Z,1013.67
2018-10-11T12:50:59.061Z,1013.64
2018-10-11T12:51:58.850Z,1013.66
2018-10-11T12:52:58.713Z,1013.66
2018-10-11T12:53:59.198Z,1013.65
2018-10-11T12:54:59.033Z,1013.66
2018-10-11T12:55:58.790Z,1013.59
2018-10-11T12:56:59.512Z,1013.64
2018-10-11T12:58:20.602Z,1013.65
2018-10-11T12:59:21.159Z,1013.65
2018-10-11T13:00:20.705Z,1013.64
2018-10-11T13:02:05.205Z,1013.62
2018-10-11T13:03:05.963Z,1013.64
2018-10-11T13:04:05.737Z,1013.65
2018-10-11T13:05:05.536Z,1013.61
2018-10-11T13:06:05.336Z,1013.61
2018-10-11T13:07:05.886Z,1013.62
2018-10-11T13:08:05.369Z,1013.65
2018-10-11T13:09:26.787Z,1013.60
2018-10-11T13:10:27.415Z,1013.61
2018-10-11T13:11:26.946Z,1013.62
2018-10-11T13:12:26.595Z,1013.55
2018-10-11T13:13:27.310Z,1013.52
2018-10-11T13:14:26.984Z,1013.50
2018-10-11T13:15:27.424Z,1013.49
2018-10-11T13:16:27.301Z,1013.47
2018-10-11T13:17:26.912Z,1013.41
2018-10-11T13:18:26.536Z,1013.43
2018-10-11T13:19:27.025Z,1013.40
2018-10-11T13:20:26.900Z,1013.37
2018-10-11T13:21:27.467Z,1013.38
2018-10-11T13:22:48.681Z,1013.36
2018-10-11T13:23:49.397Z,1013.39
2018-10-11T13:24:49.537Z,1013.42
2018-10-11T13:25:49.137Z,1013.48
2018-10-11T13:26:48.492Z,1013.43
2018-10-11T13:27:49.129Z,1013.43
2018-10-11T13:28:48.679Z,1013.43
2018-10-11T13:30:31.909Z,1013.41
2018-10-11T13:32:15.535Z,1013.40
2018-10-11T13:33:16.296Z,1013.43
2018-10-11T13:34:15.941Z,1013.49
2018-10-11T13:35:15.795Z,1013.46
2018-10-11T13:36:16.287Z,1013.51
2018-10-11T13:37:15.788Z,1013.53
2018-10-11T13:38:16.298Z,1013.58
2018-10-11T13:39:15.755Z,1013.63
2018-10-11T13:40:37.710Z,1013.63
2018-10-11T13:41:38.279Z,1013.67
2018-10-11T13:42:38.230Z,1013.66
2018-10-11T13:44:21.113Z,1013.62
2018-10-11T13:45:21.581Z,1013.65
2018-10-11T13:46:21.232Z,1013.62
2018-10-11T13:48:04.942Z,1013.66
2018-10-11T13:49:05.638Z,1013.70
2018-10-11T13:50:05.208Z,1013.68
2018-10-11T13:51:04.787Z,1013.67
2018-10-11T13:52:05.280Z,1013.46
2018-10-11T13:53:05.029Z,1013.71
2018-10-11T13:55:13.056Z,1013.76
2018-10-11T13:55:35.712Z,1013.75
2018-10-11T13:57:01.444Z,1013.75
2018-10-11T13:57:58.443Z,1013.74
2018-10-11T14:00:02.899Z,1013.73
2018-10-11T14:01:03.402Z,1013.72
2018-10-11T14:02:03.338Z,1013.72
2018-10-11T14:03:03.121Z,1013.71
2018-10-11T14:04:25.399Z,1013.69
2018-10-11T14:05:26.267Z,1013.68
2018-10-11T14:06:25.736Z,1013.68
2018-10-11T14:07:46.983Z,1013.67
2018-10-11T14:08:48.839Z,1013.70
2018-10-11T14:09:47.621Z,1013.70
2018-10-11T14:10:47.362Z,1013.71
2018-10-11T14:11:47.161Z,1013.73
2018-10-11T14:12:47.683Z,1013.70
2018-10-11T14:13:46.965Z,1013.72
2018-10-11T14:14:47.714Z,1013.75
2018-10-11T14:15:47.286Z,1013.73
2018-10-11T14:17:09.654Z,1013.70
2018-10-11T14:18:11.911Z,1013.74
2018-10-11T14:19:10.138Z,1013.76
2018-10-11T14:20:09.797Z,1013.77
2018-10-11T14:21:10.436Z,1013.80
2018-10-11T14:22:10.204Z,1013.79
2018-10-11T14:23:31.496Z,1013.87
2018-10-11T14:24:31.982Z,1013.85
2018-10-11T14:25:31.585Z,1013.83
2018-10-11T14:27:36.893Z,1013.85
2018-10-11T14:28:37.519Z,1013.80
2018-10-11T14:29:37.200Z,1013.84
2018-10-11T14:30:37.725Z,1013.85
2018-10-11T14:31:37.302Z,1013.82
2018-10-11T14:32:36.968Z,1013.83
2018-10-11T14:33:37.846Z,1013.83
2018-10-11T14:34:58.982Z,1013.86
2018-10-11T14:35:59.475Z,1013.84
2018-10-11T14:36:59.152Z,1013.86
2018-10-11T14:37:59.427Z,1013.86
2018-10-11T14:39:21.839Z,1013.86
2018-10-11T14:40:22.542Z,1013.86
2018-10-11T14:41:43.732Z,1013.86
2018-10-11T14:43:27.335Z,1013.83
2018-10-11T14:44:28.188Z,1013.83
2018-10-11T14:45:27.186Z,1013.79
2018-10-11T14:46:49.388Z,1013.76
2018-10-11T14:47:49.984Z,1013.75
2018-10-11T14:48:49.627Z,1013.77
2018-10-11T14:49:50.205Z,1013.78
2018-10-11T14:51:11.359Z,1013.74
2018-10-11T14:52:33.798Z,1013.73
2018-10-11T14:53:34.418Z,1013.73
2018-10-11T14:54:34.051Z,1013.72
2018-10-11T14:55:56.651Z,1013.71
2018-10-11T14:56:57.283Z,1013.70
2018-10-11T14:57:56.868Z,1013.72
2018-10-11T14:59:18.934Z,1013.73
2018-10-11T15:00:19.521Z,1013.73
2018-10-11T15:01:18.980Z,1013.75
2018-10-11T15:02:19.420Z,1013.74
2018-10-11T15:03:19.051Z,1013.77
2018-10-11T15:04:19.942Z,1013.78
2018-10-11T15:05:19.587Z,1013.79
2018-10-11T15:06:41.395Z,1013.80
2018-10-11T15:07:41.809Z,1013.87
2018-10-11T15:08:42.495Z,1013.80
2018-10-11T15:09:42.281Z,1013.86
2018-10-11T15:10:42.267Z,1013.83
2018-10-11T15:11:41.923Z,1013.90
2018-10-11T15:12:41.549Z,1013.89
2018-10-11T15:13:42.300Z,1013.89
2018-10-11T15:14:42.191Z,1013.86
2018-10-11T15:15:41.844Z,1013.88
2018-10-11T15:16:42.318Z,1013.88
2018-10-11T15:17:41.931Z,1013.91
2018-10-11T15:19:03.898Z,1013.90
2018-10-11T15:20:04.662Z,1013.89
2018-10-11T15:21:04.288Z,1013.93
2018-10-11T15:22:04.955Z,1013.95
2018-10-11T15:23:04.587Z,1013.95
2018-10-11T15:24:25.785Z,1013.93
2018-10-11T15:25:26.747Z,1013.95
2018-10-11T15:26:47.911Z,1013.92
2018-10-11T15:27:48.511Z,1013.95
2018-10-11T15:28:48.097Z,1013.93
2018-10-11T15:29:48.802Z,1013.93
2018-10-11T15:30:48.411Z,1013.91
2018-10-11T15:31:48.013Z,1013.89
2018-10-11T15:32:48.522Z,1013.91
2018-10-11T15:33:48.280Z,1013.89
2018-10-11T15:34:48.013Z,1013.85
2018-10-11T15:35:48.490Z,1013.84
2018-10-11T15:36:48.944Z,1013.83
2018-10-11T15:38:31.427Z,1013.84
2018-10-11T15:39:32.245Z,1013.82
2018-10-11T15:40:31.867Z,1013.86
2018-10-11T15:41:32.632Z,1013.87
2018-10-11T15:42:33.113Z,1013.90
2018-10-11T15:43:31.791Z,1013.93
2018-10-11T15:44:32.499Z,1013.97
2018-10-11T15:45:32.499Z,1013.98
2018-10-11T15:46:32.060Z,1013.97
2018-10-11T15:47:31.613Z,1013.96
2018-10-11T15:48:32.541Z,1013.94
2018-10-11T15:49:32.648Z,1013.96
2018-10-11T15:50:32.713Z,1013.92
2018-10-11T15:51:32.467Z,1013.93
2018-10-11T15:52:32.237Z,1013.95
2018-10-11T15:53:32.591Z,1013.92
2018-10-11T15:54:32.598Z,1013.95
2018-10-11T15:55:32.681Z,1013.99
2018-10-11T15:56:32.070Z,1014.00
2018-10-11T15:57:31.561Z,1013.99
2018-10-11T15:59:15.687Z,1013.98
2018-10-11T16:00:16.439Z,1014.01
2018-10-11T16:01:16.186Z,1014.02
2018-10-11T16:02:15.828Z,1013.99
2018-10-11T16:03:15.547Z,1013.93
2018-10-11T16:04:16.139Z,1013.92
2018-10-11T16:05:15.826Z,1013.95
2018-10-11T16:06:16.661Z,1013.97
2018-10-11T16:07:37.897Z,1013.97
2018-10-11T16:08:38.746Z,1013.98
2018-10-11T16:09:38.542Z,1013.99
2018-10-11T16:10:38.168Z,1014.03
2018-10-11T16:11:59.305Z,1014.00
2018-10-11T16:13:08.877Z,1014.03
2018-10-11T16:13:59.453Z,1014.04
2018-10-11T16:14:59.939Z,1014.03
2018-10-11T16:15:59.772Z,1014.04
2018-10-11T16:16:59.179Z,1014.03
2018-10-11T16:17:59.868Z,1013.99
2018-10-11T16:18:59.431Z,1014.02
2018-10-11T16:19:59.956Z,1014.03
2018-10-11T16:20:59.439Z,1013.98
2018-10-11T16:22:00.077Z,1013.99
2018-10-11T16:22:59.631Z,1014.00
2018-10-11T16:23:59.212Z,1013.99
2018-10-11T16:24:59.595Z,1014.00
2018-10-11T16:25:59.145Z,1014.00
2018-10-11T16:26:59.728Z,1014.03
2018-10-11T16:27:59.412Z,1013.99
2018-10-11T16:29:00.132Z,1014.01
2018-10-11T16:29:59.546Z,1014.05
2018-10-11T16:31:00.687Z,1014.05
2018-10-11T16:31:59.240Z,1014.04
2018-10-11T16:32:59.998Z,1014.06
2018-10-11T16:33:59.536Z,1014.08
2018-10-11T16:34:58.974Z,1014.08
2018-10-11T16:35:59.625Z,1014.06
2018-10-11T16:37:21.562Z,1014.09
2018-10-11T16:38:22.054Z,1014.10
2018-10-11T16:39:43.053Z,1014.10
2018-10-11T16:41:05.175Z,1014.03
2018-10-11T16:42:05.711Z,1014.03
2018-10-11T16:43:05.373Z,1013.95
2018-10-11T16:44:05.968Z,1014.02
2018-10-11T16:45:05.816Z,1014.05
2018-10-11T16:47:09.745Z,1013.99
2018-10-11T16:48:10.418Z,1014.03
2018-10-11T16:49:31.420Z,1014.06
2018-10-11T16:50:32.089Z,1014.06
2018-10-11T16:51:31.648Z,1014.05
2018-10-11T16:52:53.435Z,1014.13
2018-10-11T16:53:53.976Z,1014.09
2018-10-11T16:54:54.492Z,1014.09
2018-10-11T16:55:53.809Z,1014.08
2018-10-11T16:56:54.349Z,1014.10
2018-10-11T16:57:53.992Z,1014.11
2018-10-11T16:58:54.479Z,1014.16
2018-10-11T16:59:54.053Z,1014.15
2018-10-11T17:00:54.568Z,1014.17
2018-10-11T17:01:53.986Z,1014.17
2018-10-11T17:02:54.377Z,1014.19
2018-10-11T17:03:53.789Z,1014.19
2018-10-11T17:04:54.887Z,1014.19
2018-10-11T17:05:54.231Z,1014.19
2018-10-11T17:06:53.669Z,1014.18
2018-10-11T17:07:54.147Z,1014.26
2018-10-11T17:08:53.602Z,1014.24
2018-10-11T17:09:54.136Z,1014.25
2018-10-11T17:10:54.174Z,1014.24
2018-10-11T17:11:53.771Z,1014.21
2018-10-11T17:13:15.824Z,1014.25
2018-10-11T17:14:16.355Z,1014.21
2018-10-11T17:15:15.940Z,1014.28
2018-10-11T17:16:37.592Z,1014.30
2018-10-11T17:17:37.981Z,1014.33
2018-10-11T17:18:37.665Z,1014.35
2018-10-11T17:19:38.062Z,1014.34
2018-10-11T17:20:38.626Z,1014.34
2018-10-11T17:21:38.802Z,1014.40
2018-10-11T17:22:38.695Z,1014.34
2018-10-11T17:23:38.239Z,1014.39
2018-10-11T17:24:37.721Z,1014.37
2018-10-11T17:25:38.284Z,1014.39
2018-10-11T17:26:37.635Z,1014.44
2018-10-11T17:27:38.282Z,1014.42
2018-10-11T17:28:59.519Z,1014.42
2018-10-11T17:30:00.183Z,1014.37
2018-10-11T17:30:59.596Z,1014.39
2018-10-11T17:32:00.273Z,1014.42
2018-10-11T17:32:59.882Z,1014.42
2018-10-11T17:34:00.429Z,1014.42
2018-10-11T17:34:59.911Z,1014.42
2018-10-11T17:35:59.490Z,1014.37
2018-10-11T17:37:00.111Z,1014.41
2018-10-11T17:37:59.514Z,1014.42
2018-10-11T17:38:59.722Z,1014.39
2018-10-11T17:40:21.732Z,1014.37
2018-10-11T17:41:22.051Z,1014.36
2018-10-11T17:42:21.781Z,1014.28
2018-10-11T17:43:22.412Z,1014.36
2018-10-11T17:44:21.972Z,1014.37
2018-10-11T17:45:43.582Z,1014.33
2018-10-11T17:46:44.059Z,1014.34
2018-10-11T17:47:43.748Z,1014.33
2018-10-11T17:48:44.287Z,1014.33
2018-10-11T17:49:43.863Z,1014.32
2018-10-11T17:50:44.646Z,1014.33
2018-10-11T17:51:44.205Z,1014.33
2018-10-11T17:53:05.104Z,1014.31
2018-10-11T17:54:05.737Z,1014.26
2018-10-11T17:55:05.488Z,1014.27
2018-10-11T17:56:05.045Z,1014.27
2018-10-11T17:57:05.646Z,1014.29
2018-10-11T17:58:05.399Z,1014.29
2018-10-11T17:59:27.370Z,1014.21
2018-10-11T18:00:27.685Z,1014.28
2018-10-11T18:01:27.239Z,1014.24
2018-10-11T18:02:49.319Z,1014.19
2018-10-11T18:03:49.903Z,1014.26
2018-10-11T18:04:49.847Z,1014.25
2018-10-11T18:05:49.526Z,1014.25
2018-10-11T18:06:50.098Z,1014.27
2018-10-11T18:07:49.651Z,1014.24
2018-10-11T18:08:50.209Z,1014.26
2018-10-11T18:10:12.618Z,1014.24
2018-10-11T18:11:12.625Z,1014.25
2018-10-11T18:12:35.131Z,1014.24
2018-10-11T18:13:35.696Z,1014.24
2018-10-11T18:14:35.313Z,1014.24
2018-10-11T18:15:57.843Z,1014.23
2018-10-11T18:16:58.540Z,1014.23
2018-10-11T18:18:19.918Z,1014.23
2018-10-11T18:19:20.575Z,1014.22
2018-10-11T18:20:20.355Z,1014.20
2018-10-11T18:21:41.891Z,1014.19
2018-10-11T18:22:42.787Z,1014.19
2018-10-11T18:23:42.525Z,1014.17
2018-10-11T18:24:42.119Z,1014.18
2018-10-11T18:25:41.621Z,1014.21
2018-10-11T18:26:42.401Z,1014.16
2018-10-11T18:27:41.996Z,1014.20
2018-10-11T18:29:04.171Z,1014.17
2018-10-11T18:30:04.996Z,1014.18
2018-10-11T18:31:04.707Z,1014.20
2018-10-11T18:32:04.432Z,1014.19
2018-10-11T18:33:04.164Z,1014.19
2018-10-11T18:34:04.746Z,1014.17
2018-10-11T18:35:26.102Z,1014.16
2018-10-11T18:36:48.589Z,1014.15
2018-10-11T18:37:49.175Z,1014.17
2018-10-11T18:38:48.783Z,1014.13
2018-10-11T18:39:48.544Z,1014.18
2018-10-11T18:41:11.391Z,1014.21
2018-10-11T18:42:12.018Z,1014.21
2018-10-11T18:43:11.843Z,1014.24
2018-10-11T18:44:11.536Z,1014.21
2018-10-11T18:45:12.410Z,1014.24
2018-10-11T18:46:12.337Z,1014.26
2018-10-11T18:47:12.053Z,1014.26
2018-10-11T18:48:11.711Z,1014.25
2018-10-11T18:49:12.336Z,1014.22
2018-10-11T18:50:12.109Z,1014.25
2018-10-11T18:51:11.763Z,1014.21
2018-10-11T18:52:11.708Z,1014.24
2018-10-11T18:53:12.298Z,1014.22
2018-10-11T18:54:12.052Z,1014.20
2018-10-11T18:55:33.352Z,1014.17
2018-10-11T18:56:34.200Z,1014.23
2018-10-11T18:57:33.997Z,1014.19
2018-10-11T18:59:16.711Z,1014.22
2018-10-11T19:00:17.465Z,1014.20
2018-10-11T19:01:17.003Z,1014.21
2018-10-11T19:03:00.372Z,1014.23
2018-10-11T19:04:24.608Z,1014.22
2018-10-11T19:05:25.305Z,1014.20
2018-10-11T19:06:25.028Z,1014.21
2018-10-11T19:07:24.641Z,1014.24
2018-10-11T19:08:25.227Z,1014.24
2018-10-11T19:09:46.392Z,1014.29
2018-10-11T19:10:47.007Z,1014.28
2018-10-11T19:11:46.674Z,1014.27
2018-10-11T19:12:47.307Z,1014.31
2018-10-11T19:13:46.832Z,1014.30
2018-10-11T19:14:46.615Z,1014.32
2018-10-11T19:15:46.347Z,1014.32
2018-10-11T19:16:46.974Z,1014.37
2018-10-11T19:17:46.594Z,1014.40
2018-10-11T19:18:47.118Z,1014.38
2018-10-11T19:19:46.711Z,1014.42
2018-10-11T19:20:47.009Z,1014.43
2018-10-11T19:21:46.685Z,1014.42
2018-10-11T19:22:46.391Z,1014.43
2018-10-11T19:23:47.001Z,1014.41
2018-10-11T19:24:46.764Z,1014.39
2018-10-11T19:25:46.413Z,1014.40
2018-10-11T19:26:46.954Z,1014.43
2018-10-11T19:27:46.599Z,1014.47
2018-10-11T19:29:07.647Z,1014.44
2018-10-11T19:30:08.258Z,1014.44
2018-10-11T19:31:07.788Z,1014.43
2018-10-11T19:32:08.612Z,1014.38
2018-10-11T19:33:08.316Z,1014.38
2018-10-11T19:34:07.714Z,1014.38
2018-10-11T19:35:08.363Z,1014.39
2018-10-11T19:36:07.913Z,1014.39
2018-10-11T19:37:29.879Z,1014.42
2018-10-11T19:38:30.412Z,1014.42
2018-10-11T19:39:30.286Z,1014.43
2018-10-11T19:40:30.132Z,1014.44
2018-10-11T19:41:51.552Z,1014.52
2018-10-11T19:42:52.126Z,1014.50
2018-10-11T19:43:51.932Z,1014.47
2018-10-11T19:44:51.591Z,1014.52
2018-10-11T19:45:52.187Z,1014.50
2018-10-11T19:46:51.645Z,1014.46
2018-10-11T19:47:52.192Z,1014.52
2018-10-11T19:48:51.944Z,1014.51
2018-10-11T19:49:51.617Z,1014.51
2018-10-11T19:50:52.230Z,1014.49
2018-10-11T19:51:51.821Z,1014.51
2018-10-11T19:53:13.125Z,1014.49
2018-10-11T19:54:13.758Z,1014.48
2018-10-11T19:55:13.534Z,1014.53
2018-10-11T19:56:22.189Z,1014.56
2018-10-11T19:57:13.699Z,1014.54
2018-10-11T19:58:34.906Z,1014.55
2018-10-11T19:59:35.665Z,1014.56
2018-10-11T20:00:56.724Z,1014.56
2018-10-11T20:01:57.479Z,1014.60
2018-10-11T20:02:57.190Z,1014.62
2018-10-11T20:04:18.842Z,1014.64
2018-10-11T20:05:19.336Z,1014.60
2018-10-11T20:06:41.691Z,1014.65
2018-10-11T20:07:42.566Z,1014.64
2018-10-11T20:08:42.311Z,1014.67
2018-10-11T20:09:42.047Z,1014.70
2018-10-11T20:10:41.694Z,1014.74
2018-10-11T20:11:42.067Z,1014.73
2018-10-11T20:12:41.556Z,1014.74
2018-10-11T20:14:03.539Z,1014.79
2018-10-11T20:15:04.228Z,1014.80
2018-10-11T20:16:03.884Z,1014.80
2018-10-11T20:17:04.293Z,1014.79
2018-10-11T20:18:04.140Z,1014.81
2018-10-11T20:19:03.793Z,1014.78
2018-10-11T20:20:25.947Z,1014.81
2018-10-11T20:21:26.680Z,1014.85
2018-10-11T20:22:26.388Z,1014.81
2018-10-11T20:23:26.005Z,1014.85
2018-10-11T20:24:26.647Z,1014.86
2018-10-11T20:25:26.311Z,1014.87
2018-10-11T20:26:26.650Z,1014.89
2018-10-11T20:27:26.337Z,1014.91
2018-10-11T20:28:26.680Z,1014.92
2018-10-11T20:29:26.163Z,1014.94
2018-10-11T20:30:26.798Z,1014.91
2018-10-11T20:31:26.402Z,1014.94
2018-10-11T20:32:26.910Z,1014.86
2018-10-11T20:33:26.491Z,1014.91
2018-10-11T20:34:26.019Z,1014.87
2018-10-11T20:35:26.686Z,1014.78
2018-10-11T20:36:26.375Z,1014.81
2018-10-11T20:37:26.074Z,1014.85
2018-10-11T20:38:26.652Z,1014.82
2018-10-11T20:39:26.412Z,1014.87
2018-10-11T20:40:25.919Z,1014.83
2018-10-11T20:41:48.077Z,1014.87
2018-10-11T20:42:48.657Z,1014.86
2018-10-11T20:44:09.742Z,1014.87